createdAt,value
2019-04-28T00:00:31.440Z,9.10
2019-04-28T00:01:31.076Z,9.04
2019-04-28T00:02:35.507Z,9.04
2019-04-28T00:03:57.018Z,9.12
2019-04-28T00:04:31.558Z,9.04
2019-04-28T00:05:41.546Z,9.12
2019-04-28T00:07:25.138Z,8.97
2019-04-28T00:08:33.808Z,8.87
2019-04-28T00:10:41.776Z,8.76
2019-04-28T00:11:38.164Z,8.79
2019-04-28T00:13:34.402Z,8.79
2019-04-28T00:14:34.217Z,8.66
2019-04-28T00:15:42.415Z,8.86
2019-04-28T00:17:27.722Z,8.78
2019-04-28T00:18:28.164Z,8.99
2019-04-28T00:20:32.195Z,8.88
2019-04-28T00:21:32.528Z,8.93
2019-04-28T00:22:41.465Z,8.91
2019-04-28T00:24:38.080Z,8.97
2019-04-28T00:25:37.323Z,8.83
2019-04-28T00:26:37.785Z,8.81
2019-04-28T00:27:37.200Z,8.75
2019-04-28T00:28:37.179Z,8.79
2019-04-28T00:32:54.362Z,8.94
2019-04-28T00:33:54.003Z,8.79
2019-04-28T00:36:56.472Z,8.78
2019-04-28T00:37:46.822Z,8.76
2019-04-28T00:41:04.184Z,8.76
2019-04-28T00:41:51.783Z,8.81
2019-04-28T00:42:51.582Z,8.84
2019-04-28T00:43:52.005Z,8.75
2019-04-28T00:44:51.548Z,8.76
2019-04-28T00:45:51.402Z,8.81
2019-04-28T00:46:51.360Z,8.73
2019-04-28T00:47:51.302Z,8.84
2019-04-28T00:48:51.309Z,8.91
2019-04-28T00:49:51.952Z,8.79
2019-04-28T00:50:51.877Z,8.84
2019-04-28T00:51:51.450Z,8.91
2019-04-28T00:52:51.806Z,8.88
2019-04-28T00:53:51.349Z,8.79
2019-04-28T00:54:52.621Z,8.76
2019-04-28T00:55:51.636Z,8.66
2019-04-28T00:58:56.808Z,8.78
2019-04-28T00:59:58.678Z,8.63
2019-04-28T01:00:56.825Z,8.78
2019-04-28T01:01:57.109Z,8.83
2019-04-28T01:02:57.020Z,8.75
2019-04-28T01:03:56.703Z,8.63
2019-04-28T01:04:56.675Z,8.71
2019-04-28T01:05:56.736Z,8.63
2019-04-28T01:06:56.660Z,8.63
2019-04-28T01:07:56.674Z,8.68
2019-04-28T01:08:56.700Z,8.72
2019-04-28T01:09:56.659Z,8.68
2019-04-28T01:10:56.625Z,8.73
2019-04-28T01:11:56.610Z,8.78
2019-04-28T01:12:56.617Z,8.73
2019-04-28T01:13:56.608Z,8.69
2019-04-28T01:14:57.992Z,8.68
2019-04-28T01:15:56.645Z,8.65
2019-04-28T01:16:56.602Z,8.69
2019-04-28T01:17:56.588Z,8.75
2019-04-28T01:18:56.581Z,8.65
2019-04-28T01:19:56.556Z,8.72
2019-04-28T01:20:56.612Z,8.60
2019-04-28T01:21:56.565Z,8.69
2019-04-28T01:25:01.897Z,8.76
2019-04-28T01:26:01.583Z,8.62
2019-04-28T01:27:11.078Z,8.60
2019-04-28T01:29:05.822Z,8.69
2019-04-28T01:30:08.595Z,8.63
2019-04-28T01:31:15.382Z,8.66
2019-04-28T01:33:10.733Z,8.66
2019-04-28T01:34:10.484Z,8.66
2019-04-28T01:35:10.528Z,8.62
2019-04-28T01:36:10.527Z,8.58
2019-04-28T01:37:10.302Z,8.60
2019-04-28T01:39:50.515Z,8.63
2019-04-28T01:40:59.753Z,8.68
2019-04-28T01:42:55.966Z,8.68
2019-04-28T01:43:55.464Z,8.62
2019-04-28T01:44:55.883Z,8.62
2019-04-28T01:45:54.601Z,8.60
2019-04-28T01:46:54.682Z,8.60
2019-04-28T01:47:54.701Z,8.72
2019-04-28T01:48:54.149Z,8.76
2019-04-28T01:49:54.140Z,8.71
2019-04-28T01:50:54.113Z,8.78
2019-04-28T01:51:54.113Z,8.69
2019-04-28T01:52:54.126Z,8.62
2019-04-28T01:53:54.174Z,8.78
2019-04-28T01:54:54.257Z,8.72
2019-04-28T01:55:54.106Z,8.71
2019-04-28T01:56:54.037Z,8.81
2019-04-28T02:01:01.214Z,8.63
2019-04-28T02:01:52.249Z,8.62
2019-04-28T02:02:51.985Z,8.78
2019-04-28T02:03:52.344Z,8.60
2019-04-28T02:06:31.368Z,8.75
2019-04-28T02:07:32.938Z,8.73
2019-04-28T02:08:31.085Z,8.68
2019-04-28T02:09:31.951Z,8.62
2019-04-28T02:10:31.833Z,8.63
2019-04-28T02:11:31.005Z,8.63
2019-04-28T02:12:30.980Z,8.60
2019-04-28T02:13:30.974Z,8.65
2019-04-28T02:14:30.983Z,8.63
2019-04-28T02:15:30.937Z,8.62
2019-04-28T02:16:30.949Z,8.68
2019-04-28T02:17:30.898Z,8.58
2019-04-28T02:18:30.860Z,8.62
2019-04-28T02:19:33.026Z,8.57
2019-04-28T02:20:30.854Z,8.68
2019-04-28T02:21:30.870Z,8.65
2019-04-28T02:22:31.787Z,8.54
2019-04-28T02:23:30.849Z,8.63
2019-04-28T02:24:30.956Z,8.57
2019-04-28T02:25:30.812Z,8.50
2019-04-28T02:26:40.269Z,8.50
2019-04-28T02:28:35.801Z,8.54
2019-04-28T02:29:44.815Z,8.53
2019-04-28T02:31:31.713Z,8.53
2019-04-28T02:34:11.165Z,8.44
2019-04-28T02:35:10.620Z,8.44
2019-04-28T02:36:11.602Z,8.45
2019-04-28T02:37:11.009Z,8.40
2019-04-28T02:38:11.360Z,8.37
2019-04-28T02:39:10.595Z,8.40
2019-04-28T02:40:20.502Z,8.36
2019-04-28T02:42:36.595Z,8.53
2019-04-28T02:43:36.225Z,8.48
2019-04-28T02:44:36.244Z,8.53
2019-04-28T02:45:36.603Z,8.54
2019-04-28T02:46:36.116Z,8.47
2019-04-28T02:47:36.163Z,8.50
2019-04-28T02:48:36.112Z,8.48
2019-04-28T02:49:36.145Z,8.48
2019-04-28T02:50:36.142Z,8.54
2019-04-28T02:51:36.091Z,8.50
2019-04-28T02:52:36.122Z,8.62
2019-04-28T02:53:36.129Z,8.53
2019-04-28T02:54:36.734Z,8.48
2019-04-28T02:55:36.101Z,8.51
2019-04-28T02:56:46.727Z,8.55
2019-04-28T02:58:41.993Z,8.40
2019-04-28T02:59:44.843Z,8.50
2019-04-28T03:01:00.401Z,8.51
2019-04-28T03:01:42.253Z,8.58
2019-04-28T03:04:46.780Z,8.57
2019-04-28T03:05:46.376Z,8.55
2019-04-28T03:06:46.466Z,8.54
2019-04-28T03:07:45.971Z,8.54
2019-04-28T03:08:45.990Z,8.44
2019-04-28T03:09:45.980Z,8.51
2019-04-28T03:10:45.967Z,8.54
2019-04-28T03:11:45.905Z,8.51
2019-04-28T03:12:45.915Z,8.48
2019-04-28T03:13:45.908Z,8.42
2019-04-28T03:14:45.895Z,8.48
2019-04-28T03:15:45.898Z,8.44
2019-04-28T03:16:45.894Z,8.32
2019-04-28T03:17:55.231Z,8.29
2019-04-28T03:19:51.650Z,8.21
2019-04-28T03:20:51.477Z,8.40
2019-04-28T03:21:51.055Z,8.40
2019-04-28T03:22:51.360Z,8.36
2019-04-28T03:23:51.694Z,8.28
2019-04-28T03:24:51.102Z,8.15
2019-04-28T03:25:50.718Z,8.29
2019-04-28T03:26:51.025Z,8.26
2019-04-28T03:27:50.951Z,8.22
2019-04-28T03:28:51.339Z,8.18
2019-04-28T03:31:59.227Z,8.29
2019-04-28T04:23:40.893Z,8.28
2019-04-28T04:24:40.085Z,8.25
2019-04-28T04:25:37.794Z,8.15
2019-04-28T04:26:40.721Z,8.26
2019-04-28T04:27:40.627Z,8.11
2019-04-28T04:28:38.100Z,8.14
2019-04-28T04:29:43.259Z,8.03
2019-04-28T04:30:37.074Z,8.08
2019-04-28T04:31:36.814Z,8.11
2019-04-28T04:32:37.007Z,8.04
2019-04-28T04:33:36.647Z,8.03
2019-04-28T04:34:36.611Z,8.07
2019-04-28T04:35:36.611Z,8.18
2019-04-28T04:36:36.645Z,8.11
2019-04-28T04:37:36.561Z,8.30
2019-04-28T04:38:40.046Z,8.22
2019-04-28T04:39:36.541Z,8.40
2019-04-28T04:40:36.546Z,8.39
2019-04-28T04:41:36.575Z,8.48
2019-04-28T04:42:36.556Z,8.53
2019-04-28T04:43:36.499Z,8.51
2019-04-28T04:44:40.614Z,8.39
2019-04-28T04:45:36.512Z,8.42
2019-04-28T04:46:36.504Z,8.47
2019-04-28T04:47:36.489Z,8.51
2019-04-28T04:48:36.505Z,8.58
2019-04-28T04:49:36.473Z,8.65
2019-04-28T04:50:36.474Z,8.66
2019-04-28T04:51:36.461Z,8.62
2019-04-28T04:52:36.457Z,8.55
2019-04-28T04:53:36.578Z,8.60
2019-04-28T04:54:36.867Z,8.53
2019-04-28T04:55:36.472Z,8.66
2019-04-28T04:56:45.134Z,8.62
2019-04-28T04:58:50.973Z,8.63
2019-04-28T05:01:24.884Z,8.63
2019-04-28T05:03:49.717Z,8.66
2019-04-28T05:04:55.541Z,8.63
2019-04-28T05:08:42.015Z,8.62
2019-04-28T05:09:41.476Z,8.58
2019-04-28T05:11:25.555Z,8.60
2019-04-28T05:12:25.986Z,8.68
2019-04-28T05:14:29.885Z,8.83
2019-04-28T05:15:20.444Z,8.83
2019-04-28T05:16:19.746Z,8.88
2019-04-28T05:17:20.175Z,8.83
2019-04-28T05:18:19.970Z,8.91
2019-04-28T05:19:19.900Z,8.88
2019-04-28T05:20:20.047Z,8.91
2019-04-28T05:21:21.542Z,8.94
2019-04-28T05:22:20.124Z,8.96
2019-04-28T05:23:19.635Z,8.94
2019-04-28T05:24:19.600Z,8.91
2019-04-28T05:25:18.267Z,8.96
2019-04-28T05:27:59.392Z,8.93
2019-04-28T05:31:46.393Z,9.24
2019-04-28T05:32:55.583Z,9.18
2019-04-28T05:34:30.457Z,9.39
2019-04-28T05:35:37.359Z,9.43
2019-04-28T05:36:42.497Z,9.35
2019-04-28T05:38:34.496Z,9.18
2019-04-28T05:39:43.230Z,9.24
2019-04-28T05:41:39.964Z,9.32
2019-04-28T05:42:40.513Z,9.28
2019-04-28T05:43:40.435Z,9.34
2019-04-28T05:44:40.619Z,11.06
2019-04-28T05:45:39.727Z,10.56
2019-04-28T05:46:40.240Z,10.04
2019-04-28T05:47:40.706Z,9.70
2019-04-28T05:48:38.467Z,9.64
2019-04-28T05:49:39.724Z,9.60
2019-04-28T05:50:39.963Z,9.49
2019-04-28T05:51:40.135Z,9.38
2019-04-28T05:52:40.208Z,9.35
2019-04-28T05:53:40.214Z,9.52
2019-04-28T05:54:40.003Z,9.49
2019-04-28T05:55:39.341Z,9.46
2019-04-28T05:56:39.775Z,9.38
2019-04-28T05:57:39.755Z,9.49
2019-04-28T05:58:40.102Z,9.42
2019-04-28T06:02:55.515Z,9.45
2019-04-28T06:05:16.685Z,9.45
2019-04-28T06:06:26.418Z,9.70
2019-04-28T06:08:32.970Z,9.61
2019-04-28T06:12:10.303Z,9.71
2019-04-28T06:12:37.465Z,9.63
2019-04-28T06:13:37.973Z,9.48
2019-04-28T06:14:40.156Z,9.40
2019-04-28T06:15:39.637Z,9.39
2019-04-28T06:16:40.570Z,9.42
2019-04-28T06:17:39.626Z,9.30
2019-04-28T06:18:39.448Z,9.39
2019-04-28T06:19:40.159Z,9.40
2019-04-28T06:20:37.036Z,9.40
2019-04-28T06:21:38.061Z,9.31
2019-04-28T06:22:38.480Z,9.38
2019-04-28T06:23:37.470Z,9.48
2019-04-28T06:24:45.773Z,9.52
2019-04-28T06:26:41.009Z,9.53
2019-04-28T06:27:40.249Z,9.40
2019-04-28T06:29:44.796Z,9.43
2019-04-28T06:32:27.774Z,9.35
2019-04-28T06:33:25.621Z,9.38
2019-04-28T06:36:49.434Z,9.49
2019-04-28T06:37:49.296Z,9.43
2019-04-28T06:39:43.920Z,9.46
2019-04-28T06:40:52.156Z,9.43
2019-04-28T06:42:48.171Z,9.50
2019-04-28T06:43:47.933Z,9.52
2019-04-28T06:44:47.760Z,9.43
2019-04-28T06:45:48.018Z,9.40
2019-04-28T06:46:47.693Z,9.38
2019-04-28T06:47:47.644Z,9.35
2019-04-28T06:48:47.688Z,9.43
2019-04-28T06:49:47.705Z,9.42
2019-04-28T06:50:47.625Z,9.34
2019-04-28T06:51:47.693Z,9.35
2019-04-28T06:52:47.618Z,9.34
2019-04-28T06:53:47.615Z,9.31
2019-04-28T06:54:47.599Z,9.30
2019-04-28T06:55:47.626Z,9.39
2019-04-28T06:56:56.863Z,9.39
2019-04-28T06:59:00.070Z,9.27
2019-04-28T07:00:01.214Z,9.28
2019-04-28T07:02:07.125Z,9.28
2019-04-28T07:03:05.522Z,9.21
2019-04-28T07:06:18.415Z,9.23
2019-04-28T07:09:24.315Z,9.35
2019-04-28T07:10:24.111Z,9.40
2019-04-28T07:11:24.158Z,9.42
2019-04-28T07:12:25.413Z,9.32
2019-04-28T07:13:23.959Z,9.25
2019-04-28T07:14:23.970Z,9.28
2019-04-28T07:15:24.011Z,9.27
2019-04-28T07:16:23.940Z,9.38
2019-04-28T07:17:23.954Z,9.34
2019-04-28T07:18:23.954Z,9.42
2019-04-28T07:19:24.166Z,9.32
2019-04-28T07:20:23.973Z,9.21
2019-04-28T07:21:24.040Z,9.25
2019-04-28T07:22:23.931Z,9.35
2019-04-28T07:23:24.155Z,9.27
2019-04-28T07:24:23.995Z,9.30
2019-04-28T07:25:23.911Z,9.30
2019-04-28T07:29:47.922Z,9.40
2019-04-28T07:34:02.739Z,9.58
2019-04-28T07:34:58.445Z,9.63
2019-04-28T07:35:58.922Z,9.64
2019-04-28T07:36:58.112Z,9.53
2019-04-28T07:37:58.107Z,9.63
2019-04-28T07:38:58.095Z,9.61
2019-04-28T07:39:58.052Z,9.73
2019-04-28T07:40:58.141Z,9.67
2019-04-28T07:41:58.100Z,9.71
2019-04-28T07:42:58.064Z,9.76
2019-04-28T07:43:58.077Z,9.76
2019-04-28T07:44:58.065Z,9.88
2019-04-28T07:45:58.012Z,10.00
2019-04-28T07:46:57.996Z,9.89
2019-04-28T07:47:58.015Z,10.14
2019-04-28T07:48:58.047Z,10.19
2019-04-28T07:49:58.029Z,10.15
2019-04-28T07:50:58.020Z,10.19
2019-04-28T07:51:58.031Z,10.19
2019-04-28T07:52:58.014Z,10.12
2019-04-28T07:53:57.987Z,10.18
2019-04-28T07:54:57.988Z,10.30
2019-04-28T07:55:57.952Z,10.19
2019-04-28T07:56:57.952Z,10.22
2019-04-28T07:57:57.998Z,10.18
2019-04-28T07:58:57.951Z,10.18
2019-04-28T07:59:57.967Z,10.12
2019-04-28T08:00:57.958Z,10.40
2019-04-28T08:01:57.907Z,10.42
2019-04-28T08:04:37.724Z,10.44
2019-04-28T08:05:37.349Z,10.62
2019-04-28T08:06:37.321Z,10.58
2019-04-28T08:07:37.544Z,10.53
2019-04-28T08:08:37.284Z,10.56
2019-04-28T08:09:37.249Z,10.60
2019-04-28T08:10:37.304Z,10.52
2019-04-28T08:11:37.264Z,10.68
2019-04-28T08:12:37.254Z,10.60
2019-04-28T08:13:37.241Z,10.55
2019-04-28T08:14:37.298Z,10.63
2019-04-28T08:15:37.302Z,10.62
2019-04-28T08:16:37.222Z,10.66
2019-04-28T08:17:37.246Z,10.59
2019-04-28T08:18:37.450Z,10.60
2019-04-28T08:19:37.314Z,10.70
2019-04-28T08:20:37.232Z,10.77
2019-04-28T08:21:37.222Z,10.88
2019-04-28T08:22:37.231Z,10.86
2019-04-28T08:23:47.048Z,10.84
2019-04-28T08:24:37.203Z,10.88
2019-04-28T08:25:46.382Z,10.99
2019-04-28T08:27:41.493Z,11.02
2019-04-28T08:28:39.535Z,11.10
2019-04-28T08:30:36.350Z,10.99
2019-04-28T08:31:36.065Z,11.07
2019-04-28T08:32:35.997Z,11.11
2019-04-28T08:33:36.227Z,11.09
2019-04-28T08:34:45.745Z,11.10
2019-04-28T08:36:41.060Z,11.13
2019-04-28T08:37:40.665Z,11.01
2019-04-28T08:38:40.449Z,11.20
2019-04-28T08:39:40.776Z,11.27
2019-04-28T08:40:40.437Z,11.24
2019-04-28T08:41:40.394Z,11.13
2019-04-28T08:42:40.464Z,11.17
2019-04-28T08:43:40.590Z,11.21
2019-04-28T08:44:40.412Z,11.16
2019-04-28T08:45:40.378Z,11.14
2019-04-28T08:46:40.382Z,11.29
2019-04-28T08:47:40.366Z,11.29
2019-04-28T08:48:40.432Z,11.28
2019-04-28T08:49:40.346Z,11.35
2019-04-28T08:50:40.352Z,11.39
2019-04-28T08:51:40.342Z,11.31
2019-04-28T08:52:40.395Z,11.36
2019-04-28T08:53:40.452Z,11.41
2019-04-28T08:54:40.346Z,11.47
2019-04-28T08:55:40.331Z,11.35
2019-04-28T08:56:40.353Z,11.38
2019-04-28T08:57:40.463Z,11.35
2019-04-28T08:58:40.360Z,11.36
2019-04-28T08:59:40.308Z,11.46
2019-04-28T09:00:40.310Z,11.43
2019-04-28T09:01:40.317Z,11.46
2019-04-28T09:02:40.312Z,11.43
2019-04-28T09:03:40.371Z,11.46
2019-04-28T09:04:40.353Z,11.43
2019-04-28T09:05:40.433Z,11.54
2019-04-28T09:06:40.539Z,11.46
2019-04-28T09:07:40.700Z,11.57
2019-04-28T09:08:40.773Z,11.65
2019-04-28T09:09:41.064Z,11.67
2019-04-28T09:10:40.578Z,11.52
2019-04-28T09:11:40.237Z,11.49
2019-04-28T09:12:40.290Z,11.28
2019-04-28T09:13:40.263Z,11.24
2019-04-28T09:14:40.224Z,11.24
2019-04-28T09:15:40.213Z,11.09
2019-04-28T09:16:49.335Z,10.91
2019-04-28T09:18:44.803Z,10.84
2019-04-28T09:19:44.755Z,10.86
2019-04-28T09:20:44.771Z,10.89
2019-04-28T09:21:45.048Z,10.76
2019-04-28T09:22:44.669Z,10.76
2019-04-28T09:23:44.685Z,10.81
2019-04-28T09:24:44.676Z,10.83
2019-04-28T09:25:44.778Z,11.06
2019-04-28T09:26:44.645Z,11.10
2019-04-28T09:27:44.697Z,11.27
2019-04-28T09:28:44.650Z,11.41
2019-04-28T09:29:44.774Z,11.41
2019-04-28T09:30:44.670Z,11.62
2019-04-28T09:31:44.803Z,11.75
2019-04-28T09:32:44.692Z,11.74
2019-04-28T09:35:26.975Z,11.65
2019-04-28T09:36:16.799Z,11.74
2019-04-28T09:37:16.952Z,11.80
2019-04-28T09:39:26.698Z,12.01
2019-04-28T09:41:24.273Z,12.09
2019-04-28T09:42:24.329Z,11.86
2019-04-28T09:43:23.697Z,11.83
2019-04-28T09:44:23.369Z,11.80
2019-04-28T09:48:36.695Z,11.96
2019-04-28T09:49:36.406Z,11.82
2019-04-28T09:50:35.819Z,11.77
2019-04-28T09:51:35.806Z,11.74
2019-04-28T09:52:35.231Z,11.53
2019-04-28T09:53:34.980Z,11.49
2019-04-28T09:54:35.129Z,11.50
2019-04-28T09:55:34.828Z,11.57
2019-04-28T10:00:34.963Z,12.11
2019-04-28T10:03:06.077Z,12.01
2019-04-28T10:04:14.854Z,12.02
2019-04-28T10:06:33.659Z,11.96
2019-04-28T10:10:22.843Z,12.06
2019-04-28T10:11:08.462Z,12.02
2019-04-28T10:13:00.660Z,11.93
2019-04-28T10:14:00.253Z,11.90
2019-04-28T10:15:01.186Z,11.90
2019-04-28T10:16:00.116Z,11.86
2019-04-28T10:17:00.232Z,11.94
2019-04-28T10:18:00.132Z,11.93
2019-04-28T10:19:00.145Z,11.93
2019-04-28T10:22:04.900Z,11.85
2019-04-28T10:23:04.783Z,11.96
2019-04-28T10:24:15.442Z,11.90
2019-04-28T10:26:09.247Z,11.94
2019-04-28T10:27:16.998Z,12.05
2019-04-28T10:29:15.681Z,12.12
2019-04-28T10:30:24.655Z,12.12
2019-04-28T10:32:20.543Z,12.20
2019-04-28T10:33:29.461Z,12.19
2019-04-28T10:35:25.260Z,12.12
2019-04-28T10:36:24.475Z,12.13
2019-04-28T10:37:24.504Z,12.21
2019-04-28T10:38:24.553Z,12.13
2019-04-28T10:39:24.175Z,12.09
2019-04-28T10:40:24.220Z,12.09
2019-04-28T10:41:24.174Z,12.08
2019-04-28T10:42:24.177Z,12.06
2019-04-28T10:43:24.212Z,12.13
2019-04-28T10:44:24.217Z,12.12
2019-04-28T10:45:24.120Z,12.19
2019-04-28T10:46:24.358Z,12.16
2019-04-28T10:47:24.256Z,12.04
2019-04-28T10:48:24.125Z,12.01
2019-04-28T10:49:24.192Z,11.87
2019-04-28T10:50:24.157Z,11.62
2019-04-28T10:51:24.120Z,11.70
2019-04-28T10:52:24.120Z,11.68
2019-04-28T10:53:24.103Z,11.74
2019-04-28T10:54:24.122Z,11.72
2019-04-28T10:55:24.112Z,11.90
2019-04-28T10:56:24.114Z,11.96
2019-04-28T10:57:24.167Z,11.90
2019-04-28T10:58:24.105Z,11.96
2019-04-28T10:59:24.150Z,11.93
2019-04-28T11:00:24.043Z,12.01
2019-04-28T11:01:33.007Z,11.94
2019-04-28T11:03:28.753Z,11.97
2019-04-28T11:06:47.005Z,11.99
2019-04-28T11:07:47.738Z,11.97
2019-04-28T11:08:46.763Z,11.99
2019-04-28T11:09:46.557Z,11.93
2019-04-28T11:10:46.580Z,12.02
2019-04-28T11:11:46.609Z,12.05
2019-04-28T11:12:46.896Z,11.96
2019-04-28T11:13:46.508Z,11.93
2019-04-28T11:14:46.536Z,12.11
2019-04-28T11:15:46.539Z,12.13
2019-04-28T11:16:46.574Z,12.11
2019-04-28T11:17:46.802Z,12.09
2019-04-28T11:18:46.489Z,11.94
2019-04-28T11:19:46.601Z,11.89
2019-04-28T11:20:56.176Z,12.08
2019-04-28T11:22:53.353Z,11.94
2019-04-28T11:24:02.645Z,11.90
2019-04-28T11:27:45.987Z,11.99
2019-04-28T11:28:45.463Z,12.01
2019-04-28T11:35:20.885Z,12.21
2019-04-28T11:36:20.738Z,12.15
2019-04-28T11:38:17.451Z,12.16
2019-04-28T11:39:24.946Z,12.16
2019-04-28T11:41:21.305Z,12.26
2019-04-28T11:42:21.236Z,12.38
2019-04-28T11:43:21.712Z,12.37
2019-04-28T11:44:21.620Z,12.51
2019-04-28T11:45:22.769Z,12.64
2019-04-28T11:46:21.626Z,12.54
2019-04-28T11:47:21.038Z,12.64
2019-04-28T11:48:20.887Z,12.49
2019-04-28T11:52:00.400Z,12.46
2019-04-28T11:52:59.999Z,12.39
2019-04-28T11:53:59.549Z,12.54
2019-04-28T11:54:59.641Z,12.56
2019-04-28T11:55:58.967Z,12.69
2019-04-28T11:58:42.987Z,12.79
2019-04-28T11:59:32.965Z,12.81
2019-04-28T12:00:32.487Z,12.78
2019-04-28T12:01:32.418Z,12.82
2019-04-28T12:02:42.007Z,12.88
2019-04-28T12:04:48.793Z,12.99
2019-04-28T12:05:38.500Z,12.84
2019-04-28T12:06:46.642Z,12.79
2019-04-28T12:09:02.962Z,12.92
2019-04-28T12:10:05.318Z,12.97
2019-04-28T12:12:01.029Z,13.09
2019-04-28T12:13:01.188Z,13.14
2019-04-28T12:14:01.121Z,13.02
2019-04-28T12:15:01.109Z,13.07
2019-04-28T12:16:01.112Z,13.06
2019-04-28T12:16:59.534Z,12.97
2019-04-28T12:17:59.370Z,12.97
2019-04-28T12:18:59.365Z,12.87
2019-04-28T12:20:09.630Z,12.97
2019-04-28T12:20:59.304Z,13.07
2019-04-28T12:21:59.354Z,13.06
2019-04-28T12:22:59.268Z,13.07
2019-04-28T12:23:59.230Z,13.07
2019-04-28T12:24:59.314Z,13.11
2019-04-28T12:25:59.311Z,13.07
2019-04-28T12:27:10.776Z,12.99
2019-04-28T12:29:06.513Z,13.02
2019-04-28T12:30:04.964Z,12.96
2019-04-28T12:31:05.068Z,12.96
2019-04-28T12:32:05.218Z,12.81
2019-04-28T12:33:05.803Z,12.71
2019-04-28T12:34:04.761Z,12.74
2019-04-28T12:35:13.651Z,12.70
2019-04-28T12:37:10.802Z,12.42
2019-04-28T12:38:18.595Z,12.38
2019-04-28T12:40:14.237Z,11.80
2019-04-28T12:41:24.043Z,11.77
2019-04-28T12:43:19.108Z,11.46
2019-04-28T12:44:18.331Z,11.46
2019-04-28T12:45:18.601Z,11.34
2019-04-28T12:46:19.115Z,11.38
2019-04-28T12:47:18.239Z,10.99
2019-04-28T12:48:18.216Z,10.88
2019-04-28T12:49:18.188Z,10.83
2019-04-28T12:50:18.154Z,10.43
2019-04-28T12:51:18.155Z,10.65
2019-04-28T12:52:18.157Z,10.59
2019-04-28T12:53:18.159Z,10.65
2019-04-28T12:54:18.127Z,10.56
2019-04-28T12:55:18.144Z,10.53
2019-04-28T12:56:27.302Z,10.44
2019-04-28T12:58:31.982Z,10.34
2019-04-28T13:01:27.606Z,10.22
2019-04-28T13:02:37.418Z,10.30
2019-04-28T13:04:40.134Z,10.40
2019-04-28T13:07:11.585Z,10.44
2019-04-28T13:08:19.931Z,10.58
2019-04-28T13:10:26.614Z,10.53
2019-04-28T13:11:25.292Z,10.52
2019-04-28T13:13:22.359Z,10.55
2019-04-28T13:14:21.097Z,10.55
2019-04-28T13:15:20.816Z,10.46
2019-04-28T13:16:20.770Z,10.56
2019-04-28T13:17:20.808Z,10.65
2019-04-28T13:18:20.495Z,10.66
2019-04-28T13:19:20.271Z,10.76
2019-04-28T13:20:19.935Z,10.77
2019-04-28T13:21:19.902Z,10.83
2019-04-28T13:22:19.815Z,11.02
2019-04-28T13:23:19.846Z,11.09
2019-04-28T13:24:19.815Z,11.29
2019-04-28T13:25:19.799Z,11.29
2019-04-28T13:26:29.401Z,11.36
2019-04-28T13:30:05.769Z,11.59
2019-04-28T13:31:03.138Z,11.64
2019-04-28T13:32:02.971Z,11.70
2019-04-28T13:33:03.290Z,11.78
2019-04-28T13:34:02.699Z,11.99
2019-04-28T13:35:02.767Z,12.15
2019-04-28T13:36:14.071Z,12.34
2019-04-28T13:37:02.596Z,12.20
2019-04-28T13:42:01.878Z,12.39
2019-04-28T13:42:59.315Z,12.34
2019-04-28T13:44:00.289Z,12.44
2019-04-28T13:44:59.164Z,12.59
2019-04-28T13:45:59.149Z,12.66
2019-04-28T13:46:58.999Z,12.57
2019-04-28T13:47:58.990Z,12.63
2019-04-28T13:48:59.090Z,12.66
2019-04-28T13:49:59.075Z,12.62
2019-04-28T13:50:59.097Z,12.59
2019-04-28T13:51:59.068Z,12.63
2019-04-28T13:56:05.177Z,12.89
2019-04-28T14:00:21.091Z,12.64
2019-04-28T14:03:00.262Z,12.56
2019-04-28T14:04:00.509Z,12.38
2019-04-28T14:05:01.169Z,12.51
2019-04-28T14:06:09.587Z,12.54
2019-04-28T14:07:55.101Z,12.67
2019-04-28T14:09:03.704Z,12.74
2019-04-28T14:10:58.096Z,12.59
2019-04-28T14:11:57.980Z,12.44
2019-04-28T14:12:57.986Z,12.52
2019-04-28T14:13:58.166Z,12.64
2019-04-28T14:14:58.059Z,12.71
2019-04-28T14:15:57.826Z,12.66
2019-04-28T14:16:58.412Z,12.57
2019-04-28T14:18:07.538Z,12.64
2019-04-28T14:20:02.496Z,12.56
2019-04-28T14:22:58.502Z,12.21
2019-04-28T14:25:18.154Z,12.51
2019-04-28T14:26:17.677Z,12.42
2019-04-28T14:27:19.405Z,12.39
2019-04-28T14:29:59.544Z,12.37
